Time;durP1;ratioP1;P1;durP2;ratioP2;P2;SDS_P1;SDS_P2;PMS_P1;PMS_P2;Temp;Humidity;BMP_temperature;BMP_pressure;BME280_temperature;BME280_humidity;BME280_pressure;Samples;Min_cycle;Max_cycle;Signal;HPM_P1;HPM_P2
2024/01/26 00:01:29;;;;;;;9.95;6.57;;;11.20;99.40;;;;;;4985828;28;20045;-69
2024/01/26 00:03:54;;;;;;;12.05;7.15;;;11.30;99.40;;;;;;4990674;28;20030;-70
2024/01/26 00:06:20;;;;;;;9.73;6.00;;;11.30;99.30;;;;;;4995549;28;20030;-68
2024/01/26 00:08:45;;;;;;;12.90;7.78;;;11.30;99.30;;;;;;4994058;28;20022;-66
2024/01/26 00:11:15;;;;;;;9.40;6.40;;;11.30;99.20;;;;;;4992754;28;20057;-67
2024/01/26 00:13:41;;;;;;;11.70;6.80;;;11.30;99.30;;;;;;4993751;28;20048;-68
2024/01/26 00:16:06;;;;;;;7.63;4.68;;;11.30;99.30;;;;;;4991172;28;20099;-67
2024/01/26 00:18:32;;;;;;;7.03;4.35;;;11.30;99.30;;;;;;4987825;28;20034;-66
2024/01/26 00:20:57;;;;;;;10.98;6.63;;;11.30;99.30;;;;;;4990522;28;20029;-66
2024/01/26 00:23:23;;;;;;;7.47;5.15;;;11.30;99.30;;;;;;4988277;28;20035;-67
2024/01/26 00:25:48;;;;;;;7.03;4.68;;;11.30;99.30;;;;;;4992383;28;20033;-67
2024/01/26 00:28:14;;;;;;;9.02;4.75;;;11.40;99.30;;;;;;4990528;28;20022;-67
2024/01/26 00:30:39;;;;;;;6.97;4.03;;;11.40;99.30;;;;;;4994678;28;20045;-67
2024/01/26 00:33:05;;;;;;;7.22;4.40;;;11.40;99.30;;;;;;4992849;28;20477;-67
2024/01/26 00:35:31;;;;;;;7.60;4.68;;;11.40;99.20;;;;;;4991114;28;20041;-67
2024/01/26 00:37:56;;;;;;;10.05;6.57;;;11.50;99.20;;;;;;5000680;28;20023;-67
2024/01/26 00:40:22;;;;;;;10.05;5.90;;;11.40;99.10;;;;;;4992803;28;20038;-67
2024/01/26 00:42:48;;;;;;;7.95;5.05;;;11.40;99.20;;;;;;4995922;28;20396;-66
2024/01/26 00:45:14;;;;;;;9.30;6.03;;;11.40;99.20;;;;;;4994481;28;20022;-66
2024/01/26 00:47:39;;;;;;;12.20;7.50;;;11.40;99.10;;;;;;4991956;28;20069;-66
2024/01/26 00:50:05;;;;;;;14.43;9.32;;;11.40;99.20;;;;;;4993004;28;20061;-66
2024/01/26 00:52:31;;;;;;;14.70;9.95;;;11.30;99.30;;;;;;4990132;28;20038;-67
2024/01/26 00:54:56;;;;;;;11.77;7.57;;;11.30;99.40;;;;;;4986043;28;20493;-67
2024/01/26 00:57:22;;;;;;;9.50;6.40;;;11.30;99.40;;;;;;4990735;28;20034;-67
2024/01/26 00:59:48;;;;;;;16.08;10.18;;;11.30;99.50;;;;;;4995535;28;20045;-67
2024/01/26 01:02:14;;;;;;;11.80;7.28;;;11.30;99.50;;;;;;4993889;28;20081;-67
2024/01/26 01:04:40;;;;;;;15.50;10.45;;;11.30;99.90;;;;;;4991886;28;20109;-68
2024/01/26 01:07:05;;;;;;;19.15;11.38;;;11.30;99.70;;;;;;4992823;28;20432;-69
2024/01/26 01:09:31;;;;;;;12.63;7.88;;;11.20;99.90;;;;;;4990609;28;20026;-69
2024/01/26 01:11:57;;;;;;;10.25;6.47;;;11.30;99.90;;;;;;4986145;28;20464;-69
2024/01/26 01:14:23;;;;;;;14.80;9.90;;;11.30;99.90;;;;;;4984516;28;20023;-69
2024/01/26 01:16:50;;;;;;;16.08;10.32;;;11.30;99.90;;;;;;4996783;28;20400;-69
2024/01/26 01:19:16;;;;;;;14.07;9.40;;;11.30;99.90;;;;;;4997916;28;20085;-69
2024/01/26 01:21:41;;;;;;;11.63;7.45;;;11.30;99.90;;;;;;4995243;28;20058;-69
2024/01/26 01:24:07;;;;;;;15.85;10.88;;;11.30;99.90;;;;;;4993963;28;20034;-69
2024/01/26 01:26:33;;;;;;;18.52;11.93;;;11.30;99.90;;;;;;4995408;28;20030;-70
2024/01/26 01:28:58;;;;;;;17.95;11.82;;;11.20;99.90;;;;;;4992954;28;20600;-69
2024/01/26 01:31:24;;;;;;;14.15;8.77;;;11.20;99.90;;;;;;4989466;28;20513;-69
2024/01/26 01:33:50;;;;;;;10.32;6.65;;;11.20;99.90;;;;;;4992093;28;20088;-69
2024/01/26 01:36:15;;;;;;;12.02;7.78;;;11.20;99.90;;;;;;4992461;28;20030;-69
2024/01/26 01:38:41;;;;;;;14.02;8.95;;;11.30;99.90;;;;;;4990473;28;20173;-70
2024/01/26 01:41:06;;;;;;;15.43;9.77;;;11.30;99.90;;;;;;4989648;28;20022;-69
2024/01/26 01:43:32;;;;;;;13.30;8.93;;;11.20;99.90;;;;;;4991930;28;20097;-69
2024/01/26 01:45:57;;;;;;;10.45;6.85;;;11.20;99.90;;;;;;4990917;28;20030;-69
2024/01/26 01:48:23;;;;;;;11.85;7.63;;;11.20;99.90;;;;;;4989037;28;20026;-69
2024/01/26 01:50:49;;;;;;;10.82;7.07;;;11.30;99.90;;;;;;4991999;28;20018;-69
2024/01/26 01:53:15;;;;;;;14.77;10.20;;;11.30;99.90;;;;;;4991667;28;20034;-70
2024/01/26 01:55:44;;;;;;;12.75;8.13;;;11.30;99.90;;;;;;4987840;28;20073;-69
2024/01/26 01:58:10;;;;;;;10.95;6.68;;;11.30;99.90;;;;;;4992709;28;20080;-70
2024/01/26 02:00:37;;;;;;;12.68;8.40;;;11.30;99.90;;;;;;4992236;28;20022;-70
2024/01/26 02:03:02;;;;;;;10.38;6.95;;;11.30;99.90;;;;;;4990810;28;20500;-70
2024/01/26 02:05:28;;;;;;;8.50;6.10;;;11.30;99.90;;;;;;4991301;28;20102;-69
2024/01/26 02:07:54;;;;;;;13.10;8.00;;;11.30;99.90;;;;;;4990095;28;20080;-69
2024/01/26 02:10:20;;;;;;;12.85;8.80;;;11.30;99.90;;;;;;4989940;28;20069;-69
2024/01/26 02:12:45;;;;;;;13.52;9.27;;;11.30;99.90;;;;;;4989639;28;20022;-69
2024/01/26 02:15:11;;;;;;;13.93;8.93;;;11.30;99.90;;;;;;4994756;28;20030;-69
2024/01/26 02:17:39;;;;;;;14.43;8.98;;;11.40;99.90;;;;;;4988544;28;20022;-68
2024/01/26 02:20:07;;;;;;;12.50;8.02;;;11.30;99.90;;;;;;4990134;28;20026;-68
2024/01/26 02:22:33;;;;;;;14.30;9.32;;;11.30;99.90;;;;;;4985542;28;20413;-68
2024/01/26 02:24:59;;;;;;;13.85;9.50;;;11.30;99.90;;;;;;4988138;28;20022;-67
2024/01/26 02:27:25;;;;;;;10.32;7.60;;;11.30;99.90;;;;;;4985282;28;20481;-68
2024/01/26 02:29:50;;;;;;;9.35;6.38;;;11.30;99.90;;;;;;4991280;28;20022;-68
2024/01/26 02:32:16;;;;;;;8.60;5.35;;;11.30;99.90;;;;;;4989652;28;20026;-68
2024/01/26 02:34:41;;;;;;;9.40;6.70;;;11.40;99.90;;;;;;4990307;28;20101;-68
2024/01/26 02:37:07;;;;;;;9.93;6.85;;;11.40;99.90;;;;;;4989821;28;20080;-65
2024/01/26 02:39:33;;;;;;;12.40;8.35;;;11.40;99.90;;;;;;4992846;28;20038;-65
2024/01/26 02:41:59;;;;;;;11.43;7.93;;;11.40;99.90;;;;;;4990691;28;20014;-66
2024/01/26 02:44:25;;;;;;;12.95;8.93;;;11.40;99.90;;;;;;4989511;28;20026;-68
2024/01/26 02:46:50;;;;;;;12.45;7.90;;;11.30;99.90;;;;;;4989164;28;20045;-68
2024/01/26 02:49:16;;;;;;;10.35;7.05;;;11.30;99.90;;;;;;4990340;28;20088;-68
2024/01/26 02:51:42;;;;;;;9.90;6.85;;;11.30;99.90;;;;;;4991999;28;20023;-68
2024/01/26 02:54:08;;;;;;;9.20;6.45;;;11.30;99.90;;;;;;4992980;28;20035;-68
2024/01/26 02:56:34;;;;;;;11.30;7.70;;;11.30;99.90;;;;;;4989520;28;20493;-68
2024/01/26 02:58:59;;;;;;;12.65;8.18;;;11.40;99.90;;;;;;4991973;28;20026;-69
2024/01/26 03:01:25;;;;;;;12.40;8.35;;;11.30;99.90;;;;;;4989595;28;20038;-69
2024/01/26 03:03:50;;;;;;;8.35;6.00;;;11.30;99.90;;;;;;4989935;28;20081;-68
2024/01/26 03:06:17;;;;;;;9.82;6.47;;;11.30;99.90;;;;;;4983085;28;20037;-68
2024/01/26 03:08:43;;;;;;;7.75;5.22;;;11.30;99.90;;;;;;4989554;28;20115;-68
2024/01/26 03:11:12;;;;;;;11.70;7.97;;;11.40;99.90;;;;;;4989559;28;20026;-69
2024/01/26 03:13:37;;;;;;;8.98;6.22;;;11.30;99.90;;;;;;4989797;28;20109;-69
2024/01/26 03:16:03;;;;;;;7.18;5.18;;;11.30;99.90;;;;;;4991097;28;20457;-70
2024/01/26 03:18:29;;;;;;;8.75;4.93;;;11.30;99.90;;;;;;4989903;28;20050;-70
2024/01/26 03:20:54;;;;;;;7.40;4.35;;;11.40;99.90;;;;;;4990360;28;20023;-70
2024/01/26 03:23:20;;;;;;;6.55;4.40;;;11.40;99.90;;;;;;4982241;28;20040;-68
2024/01/26 03:25:45;;;;;;;6.28;4.35;;;11.40;99.90;;;;;;4991992;28;20072;-68
2024/01/26 03:28:11;;;;;;;6.80;5.18;;;11.40;99.90;;;;;;4990299;28;20030;-68
2024/01/26 03:30:38;;;;;;;6.07;4.20;;;11.40;99.90;;;;;;4990586;28;20077;-68
2024/01/26 03:33:04;;;;;;;7.78;5.00;;;11.40;99.90;;;;;;4992395;28;20025;-68
2024/01/26 03:35:29;;;;;;;9.02;5.68;;;11.40;99.90;;;;;;4992117;28;20117;-68
2024/01/26 03:37:55;;;;;;;7.00;5.50;;;11.40;99.90;;;;;;4988529;28;20053;-69
2024/01/26 03:40:22;;;;;;;6.03;4.05;;;11.40;99.90;;;;;;4985894;28;21350;-67
2024/01/26 03:42:47;;;;;;;6.50;4.15;;;11.40;99.90;;;;;;4988153;28;20061;-67
2024/01/26 03:45:13;;;;;;;6.68;4.45;;;11.40;99.90;;;;;;4988367;28;20054;-66
2024/01/26 03:47:39;;;;;;;6.53;4.30;;;11.40;99.90;;;;;;4989892;28;20632;-67
2024/01/26 03:50:06;;;;;;;6.45;4.47;;;11.40;99.90;;;;;;4989324;28;20030;-67
2024/01/26 03:52:31;;;;;;;5.65;3.42;;;11.40;99.90;;;;;;4987566;28;20022;-68
2024/01/26 03:54:57;;;;;;;7.13;4.40;;;11.40;99.90;;;;;;4989645;28;20556;-67
2024/01/26 03:57:23;;;;;;;7.63;5.32;;;11.50;99.90;;;;;;4986896;28;20034;-67
2024/01/26 03:59:48;;;;;;;7.68;4.97;;;11.50;99.90;;;;;;4989843;28;20030;-67
2024/01/26 04:02:14;;;;;;;7.13;4.65;;;11.50;99.90;;;;;;4989196;28;20069;-68
2024/01/26 04:04:40;;;;;;;7.40;5.05;;;11.40;99.90;;;;;;4988324;28;20033;-68
2024/01/26 04:07:05;;;;;;;6.22;3.92;;;11.50;99.90;;;;;;4991256;28;20014;-67
2024/01/26 04:09:31;;;;;;;7.22;4.35;;;11.50;99.90;;;;;;4991372;28;20022;-69
2024/01/26 04:11:56;;;;;;;7.40;4.10;;;11.50;99.90;;;;;;4989735;28;20501;-69
2024/01/26 04:14:22;;;;;;;6.35;4.05;;;11.50;99.90;;;;;;4990212;28;20038;-68
2024/01/26 04:16:47;;;;;;;4.68;3.42;;;11.50;99.90;;;;;;4984970;28;20021;-67
2024/01/26 04:19:13;;;;;;;4.00;2.90;;;11.50;99.90;;;;;;4988893;28;20030;-67
2024/01/26 04:21:38;;;;;;;5.38;3.28;;;11.50;99.90;;;;;;4993208;28;20033;-67
2024/01/26 04:24:04;;;;;;;3.63;2.58;;;11.50;99.90;;;;;;4990462;28;20061;-69
2024/01/26 04:26:30;;;;;;;4.63;3.10;;;11.60;99.90;;;;;;4990095;28;20034;-70
2024/01/26 04:28:55;;;;;;;4.78;3.65;;;11.60;99.90;;;;;;4990964;28;20030;-70
2024/01/26 04:31:22;;;;;;;6.47;4.10;;;11.60;99.90;;;;;;4987537;28;20029;-69
2024/01/26 04:33:48;;;;;;;7.28;4.50;;;11.50;99.90;;;;;;4986796;28;20029;-69
2024/01/26 04:36:13;;;;;;;4.85;3.42;;;11.50;99.90;;;;;;5016380;28;20034;-70
2024/01/26 04:38:39;;;;;;;4.78;3.40;;;11.50;99.90;;;;;;4982850;28;20026;-69
2024/01/26 04:41:05;;;;;;;5.78;3.50;;;11.50;99.90;;;;;;4988090;28;20026;-69
2024/01/26 04:43:30;;;;;;;5.63;3.78;;;11.50;99.90;;;;;;4990175;28;20034;-71
2024/01/26 04:45:56;;;;;;;6.15;4.00;;;11.50;99.90;;;;;;4989984;28;20106;-70
2024/01/26 04:48:21;;;;;;;4.22;3.13;;;11.50;99.90;;;;;;4989699;28;20030;-68
2024/01/26 04:50:47;;;;;;;7.38;3.70;;;11.50;99.90;;;;;;4994373;28;20034;-69
2024/01/26 04:53:13;;;;;;;6.68;4.28;;;11.50;99.90;;;;;;4994493;28;20041;-68
2024/01/26 04:55:38;;;;;;;6.55;4.00;;;11.50;99.90;;;;;;4994165;28;20038;-67
2024/01/26 04:58:04;;;;;;;5.65;3.83;;;11.50;99.90;;;;;;4987095;28;20042;-67
2024/01/26 05:00:30;;;;;;;4.97;3.20;;;11.60;99.90;;;;;;4995877;28;20073;-67
2024/01/26 05:02:55;;;;;;;5.78;3.45;;;11.60;99.90;;;;;;4991769;28;20473;-67
2024/01/26 05:05:21;;;;;;;5.18;3.50;;;11.60;99.90;;;;;;4992123;28;20027;-68
2024/01/26 05:07:46;;;;;;;5.93;3.67;;;11.60;99.90;;;;;;4992630;28;20030;-68
2024/01/26 05:10:12;;;;;;;5.15;3.33;;;11.60;99.90;;;;;;4992641;28;20102;-67
2024/01/26 05:12:38;;;;;;;4.20;2.58;;;11.60;99.90;;;;;;4990834;28;20026;-68
2024/01/26 05:15:07;;;;;;;4.22;2.38;;;11.70;99.90;;;;;;4990201;28;20081;-69
2024/01/26 05:17:33;;;;;;;3.03;2.22;;;11.60;99.90;;;;;;4987810;28;20041;-68
2024/01/26 05:19:58;;;;;;;3.45;2.45;;;11.70;99.90;;;;;;4991187;28;20018;-67
2024/01/26 05:22:24;;;;;;;4.72;2.97;;;11.70;99.90;;;;;;4993595;28;20156;-67
2024/01/26 05:24:49;;;;;;;4.32;3.30;;;11.60;99.90;;;;;;4989669;28;20038;-67
2024/01/26 05:27:15;;;;;;;4.68;3.13;;;11.60;99.90;;;;;;4992909;28;20049;-68
2024/01/26 05:29:41;;;;;;;4.32;2.60;;;11.60;99.90;;;;;;4992659;28;20698;-70
2024/01/26 05:32:07;;;;;;;6.47;4.47;;;11.60;99.90;;;;;;4990755;28;20033;-68
2024/01/26 05:34:32;;;;;;;5.45;3.70;;;11.60;99.90;;;;;;4990790;28;20492;-69
2024/01/26 05:36:58;;;;;;;5.57;3.25;;;11.60;99.90;;;;;;4987523;28;20039;-67
2024/01/26 05:39:23;;;;;;;4.95;3.63;;;11.60;99.90;;;;;;4989696;28;20508;-70
2024/01/26 05:41:49;;;;;;;5.57;3.83;;;11.60;99.90;;;;;;4992573;28;20540;-69
2024/01/26 05:44:14;;;;;;;5.15;3.60;;;11.70;99.90;;;;;;4991811;28;20018;-67
2024/01/26 05:46:40;;;;;;;5.40;3.72;;;11.70;99.90;;;;;;4990378;28;20655;-68
2024/01/26 05:49:05;;;;;;;5.20;3.53;;;11.70;99.90;;;;;;4994306;28;20164;-68
2024/01/26 05:51:31;;;;;;;5.40;4.20;;;11.70;99.90;;;;;;4992063;28;20523;-69
2024/01/26 05:53:57;;;;;;;8.13;5.20;;;11.70;99.90;;;;;;4985023;28;20093;-67
2024/01/26 05:56:22;;;;;;;8.38;4.88;;;11.70;99.90;;;;;;4987961;28;20117;-68
2024/01/26 05:58:48;;;;;;;6.18;4.43;;;11.70;99.90;;;;;;4989038;28;20026;-68
2024/01/26 06:01:13;;;;;;;8.43;5.28;;;11.70;99.90;;;;;;4988686;28;20058;-68
2024/01/26 06:03:39;;;;;;;5.78;4.10;;;11.70;99.90;;;;;;4990869;28;20034;-69
2024/01/26 06:06:05;;;;;;;6.45;4.10;;;11.70;99.90;;;;;;4989415;28;20400;-70
2024/01/26 06:08:30;;;;;;;6.40;4.30;;;11.70;99.90;;;;;;4990843;28;20022;-69
2024/01/26 06:10:57;;;;;;;6.90;4.60;;;11.70;99.90;;;;;;4988467;28;20552;-70
2024/01/26 06:13:23;;;;;;;9.10;5.40;;;11.70;99.90;;;;;;4994294;28;20133;-68
2024/01/26 06:15:50;;;;;;;7.47;4.82;;;11.70;99.90;;;;;;4987784;28;20033;-69
2024/01/26 06:18:16;;;;;;;7.88;4.80;;;11.70;99.90;;;;;;4991497;28;20543;-70
2024/01/26 06:20:42;;;;;;;10.90;7.05;;;11.70;99.90;;;;;;4991403;28;20030;-69
2024/01/26 06:23:07;;;;;;;9.02;5.18;;;11.70;99.90;;;;;;4989787;28;20485;-68
2024/01/26 06:25:33;;;;;;;6.03;4.60;;;11.60;99.90;;;;;;4989680;28;20489;-68
2024/01/26 06:27:58;;;;;;;6.32;4.25;;;11.60;99.90;;;;;;4991660;28;20093;-69
2024/01/26 06:30:24;;;;;;;9.15;5.65;;;11.60;99.90;;;;;;4988872;28;20397;-69
2024/01/26 06:32:51;;;;;;;9.45;6.43;;;11.60;99.90;;;;;;4987862;28;20034;-69
2024/01/26 06:35:17;;;;;;;6.85;4.95;;;11.60;99.90;;;;;;4989781;28;20476;-69
2024/01/26 06:37:43;;;;;;;5.65;3.95;;;11.60;99.90;;;;;;4990190;28;20026;-69
2024/01/26 06:40:10;;;;;;;6.97;4.78;;;11.60;99.90;;;;;;4989511;28;20022;-68
2024/01/26 06:42:38;;;;;;;6.22;4.28;;;11.60;99.90;;;;;;4988987;28;20073;-68
2024/01/26 06:45:04;;;;;;;5.78;4.28;;;11.60;99.90;;;;;;4992168;28;20026;-68
2024/01/26 06:47:30;;;;;;;8.07;5.30;;;11.60;99.90;;;;;;4990688;28;20064;-67
2024/01/26 06:49:55;;;;;;;5.05;3.60;;;11.50;99.90;;;;;;4989003;28;20050;-67
2024/01/26 06:52:21;;;;;;;6.75;4.35;;;11.50;99.90;;;;;;4989832;28;20019;-69
2024/01/26 06:54:46;;;;;;;5.13;3.70;;;11.50;99.90;;;;;;4987122;28;20413;-69
2024/01/26 06:57:12;;;;;;;5.05;3.65;;;11.50;99.90;;;;;;4988885;28;20378;-68
2024/01/26 06:59:38;;;;;;;6.60;3.90;;;11.50;99.90;;;;;;4990590;28;20026;-68
2024/01/26 07:02:04;;;;;;;4.88;3.78;;;11.50;99.90;;;;;;4990245;28;20503;-69
2024/01/26 07:04:30;;;;;;;4.00;3.00;;;11.50;99.90;;;;;;4991197;28;20101;-68
2024/01/26 07:06:55;;;;;;;3.95;2.78;;;11.50;99.90;;;;;;4989908;28;20057;-69
2024/01/26 07:09:21;;;;;;;2.85;2.20;;;11.50;99.90;;;;;;4989254;28;20030;-69
2024/01/26 07:11:46;;;;;;;5.57;3.65;;;11.50;99.90;;;;;;4986076;28;20026;-69
2024/01/26 07:14:12;;;;;;;4.13;3.13;;;11.50;99.90;;;;;;4987835;28;20048;-69
2024/01/26 07:16:38;;;;;;;5.65;3.47;;;11.50;99.90;;;;;;4988955;28;20042;-69
2024/01/26 07:19:03;;;;;;;3.80;2.70;;;11.50;99.90;;;;;;4989286;28;20030;-70
2024/01/26 07:21:29;;;;;;;3.40;2.50;;;11.50;99.90;;;;;;4993062;28;20029;-70
2024/01/26 07:23:54;;;;;;;2.38;1.98;;;11.50;99.90;;;;;;4990744;28;20041;-69
2024/01/26 07:26:20;;;;;;;3.72;2.90;;;11.60;99.90;;;;;;4988859;28;20026;-68
2024/01/26 07:28:50;;;;;;;3.25;2.45;;;11.60;99.90;;;;;;4990258;28;20029;-68
2024/01/26 07:31:16;;;;;;;3.25;2.67;;;11.60;99.90;;;;;;4983893;28;20022;-70
2024/01/26 07:33:41;;;;;;;4.18;3.03;;;11.60;99.90;;;;;;4989309;28;20081;-68
2024/01/26 07:36:07;;;;;;;4.38;3.25;;;11.60;99.90;;;;;;4985801;28;20133;-68
2024/01/26 07:38:33;;;;;;;2.83;2.33;;;11.60;99.90;;;;;;4989725;28;20030;-69
2024/01/26 07:40:59;;;;;;;3.28;2.42;;;11.60;99.90;;;;;;4994026;28;20025;-69
2024/01/26 07:43:25;;;;;;;2.25;1.83;;;11.60;99.90;;;;;;4989399;28;20034;-69
2024/01/26 07:45:50;;;;;;;3.45;2.60;;;11.60;99.90;;;;;;4988344;28;20031;-69
2024/01/26 07:48:16;;;;;;;3.47;2.50;;;11.60;99.90;;;;;;4988316;28;20520;-69
2024/01/26 07:50:42;;;;;;;3.30;2.30;;;11.60;99.90;;;;;;4991124;28;20592;-69
2024/01/26 07:53:08;;;;;;;4.45;3.10;;;11.70;99.90;;;;;;4984607;28;20023;-68
2024/01/26 07:55:34;;;;;;;4.25;3.03;;;11.70;99.90;;;;;;4989257;28;20041;-69
2024/01/26 07:58:00;;;;;;;3.78;2.70;;;11.70;99.90;;;;;;4989834;28;20031;-69
2024/01/26 08:00:25;;;;;;;4.22;2.90;;;11.70;99.90;;;;;;4989022;28;20124;-69
2024/01/26 08:02:51;;;;;;;4.35;2.70;;;11.70;99.90;;;;;;4986758;28;20553;-70
2024/01/26 08:05:16;;;;;;;5.03;3.50;;;11.70;99.90;;;;;;4989490;28;20038;-68
2024/01/26 08:07:42;;;;;;;4.13;2.67;;;11.70;99.90;;;;;;4992027;28;20034;-68
2024/01/26 08:10:09;;;;;;;3.55;2.67;;;11.80;99.90;;;;;;4990437;28;20052;-67
2024/01/26 08:12:35;;;;;;;4.13;2.78;;;11.80;99.90;;;;;;4986525;28;20018;-67
2024/01/26 08:15:01;;;;;;;3.67;2.65;;;11.80;99.90;;;;;;4989771;28;20077;-67
2024/01/26 08:17:27;;;;;;;3.95;2.60;;;11.80;99.90;;;;;;4990583;28;20014;-68
2024/01/26 08:19:53;;;;;;;3.83;2.95;;;11.80;99.90;;;;;;4985664;28;20050;-67
2024/01/26 08:22:19;;;;;;;5.85;3.50;;;11.80;99.90;;;;;;4987365;28;20432;-67
2024/01/26 08:24:44;;;;;;;5.50;3.13;;;11.80;99.90;;;;;;4987369;28;20023;-68
2024/01/26 08:27:10;;;;;;;3.63;2.60;;;11.80;99.90;;;;;;4987988;28;20022;-67
2024/01/26 08:29:36;;;;;;;3.90;2.72;;;11.80;99.90;;;;;;4988155;28;20027;-67
2024/01/26 08:32:01;;;;;;;4.20;3.10;;;11.90;99.90;;;;;;4988005;28;20046;-67
2024/01/26 08:34:27;;;;;;;6.22;4.40;;;11.90;99.90;;;;;;4988103;28;20038;-69
2024/01/26 08:36:52;;;;;;;5.22;3.70;;;11.90;99.90;;;;;;4987061;28;20026;-68
2024/01/26 08:39:18;;;;;;;4.88;3.30;;;11.90;99.90;;;;;;4984226;28;20065;-67
2024/01/26 08:41:44;;;;;;;6.43;4.50;;;11.90;99.90;;;;;;4986668;28;20058;-67
2024/01/26 08:44:10;;;;;;;4.32;3.60;;;12.00;99.90;;;;;;4985251;28;20030;-68
2024/01/26 08:46:37;;;;;;;3.95;3.10;;;12.00;99.90;;;;;;4987878;28;20033;-67
2024/01/26 08:49:02;;;;;;;5.68;3.78;;;12.00;99.90;;;;;;4987740;28;20100;-67
2024/01/26 08:51:29;;;;;;;4.97;3.70;;;12.00;99.90;;;;;;4986979;28;20151;-67
2024/01/26 08:53:54;;;;;;;5.72;4.22;;;12.10;99.90;;;;;;4988743;28;20420;-67
2024/01/26 08:56:20;;;;;;;5.68;3.95;;;12.10;99.90;;;;;;4985953;28;20105;-67
2024/01/26 08:58:45;;;;;;;4.45;3.60;;;12.10;99.90;;;;;;4990563;28;20029;-68
2024/01/26 09:01:11;;;;;;;6.65;4.40;;;12.20;99.90;;;;;;4991006;28;20038;-67
2024/01/26 09:03:37;;;;;;;6.32;4.28;;;12.20;99.90;;;;;;5023214;28;20080;-68
2024/01/26 09:06:03;;;;;;;5.18;3.75;;;12.20;99.90;;;;;;4988593;28;20018;-67
2024/01/26 09:08:28;;;;;;;4.63;3.28;;;12.20;99.90;;;;;;4987815;28;20030;-67
2024/01/26 09:10:54;;;;;;;4.82;3.42;;;12.20;99.90;;;;;;4987749;28;20027;-67
2024/01/26 09:13:20;;;;;;;5.22;3.90;;;12.20;99.90;;;;;;4985826;28;20033;-68
2024/01/26 09:15:46;;;;;;;6.72;3.83;;;12.20;99.90;;;;;;4982273;28;20088;-69
2024/01/26 09:18:12;;;;;;;5.43;3.80;;;12.20;99.90;;;;;;4989418;28;20034;-68
2024/01/26 09:20:38;;;;;;;5.70;3.45;;;12.20;99.90;;;;;;4989628;28;20030;-68
2024/01/26 09:23:03;;;;;;;5.15;3.50;;;12.20;99.90;;;;;;4988069;28;20042;-68
2024/01/26 09:25:29;;;;;;;4.70;2.80;;;12.20;99.90;;;;;;4987982;28;20058;-67
2024/01/26 09:27:54;;;;;;;4.07;2.88;;;12.20;99.90;;;;;;4989656;28;20422;-68
2024/01/26 09:30:20;;;;;;;4.53;2.65;;;12.20;99.90;;;;;;4989616;28;20080;-68
2024/01/26 09:32:45;;;;;;;3.08;2.03;;;12.10;99.90;;;;;;4984747;28;20080;-68
2024/01/26 09:35:12;;;;;;;2.75;2.00;;;12.10;99.90;;;;;;4989809;28;20081;-67
2024/01/26 09:37:39;;;;;;;6.20;1.88;;;12.10;99.90;;;;;;4994782;28;20109;-67
2024/01/26 09:40:05;;;;;;;2.00;1.30;;;12.10;99.90;;;;;;4992644;28;20061;-68
2024/01/26 09:42:31;;;;;;;5.90;1.33;;;12.00;99.90;;;;;;4991495;28;20069;-68
2024/01/26 09:44:56;;;;;;;4.18;1.40;;;12.00;99.90;;;;;;4991499;28;20101;-67
2024/01/26 09:47:26;;;;;;;2.58;1.10;;;12.00;99.90;;;;;;4991523;28;20497;-68
2024/01/26 09:49:55;;;;;;;3.50;1.45;;;11.90;99.90;;;;;;4997156;28;20086;-68
2024/01/26 09:52:22;;;;;;;3.70;1.33;;;11.80;99.90;;;;;;4983424;28;20034;-68
2024/01/26 09:54:49;;;;;;;5.10;1.30;;;11.70;99.90;;;;;;4988660;28;20026;-69
2024/01/26 09:57:16;;;;;;;6.30;1.20;;;11.70;99.90;;;;;;4990410;28;20037;-69
2024/01/26 09:59:42;;;;;;;3.60;1.10;;;11.60;99.90;;;;;;4991222;28;20034;-68
2024/01/26 10:02:10;;;;;;;3.45;0.93;;;11.40;99.90;;;;;;4988707;28;20029;-68
2024/01/26 10:04:35;;;;;;;1.70;0.60;;;11.20;99.90;;;;;;4992207;28;20313;-68
2024/01/26 10:07:02;;;;;;;2.55;0.80;;;11.10;99.90;;;;;;4991949;28;20019;-68
2024/01/26 10:09:29;;;;;;;2.47;0.80;;;11.00;99.90;;;;;;4992249;28;20049;-69
2024/01/26 10:11:54;;;;;;;2.40;0.80;;;10.80;99.90;;;;;;4993151;28;20469;-69
2024/01/26 10:14:23;;;;;;;3.10;0.80;;;10.60;99.90;;;;;;4991299;28;20022;-68
2024/01/26 10:16:56;;;;;;;1.95;0.80;;;10.50;99.90;;;;;;4988836;28;20099;-69
2024/01/26 10:19:25;;;;;;;2.03;0.70;;;10.40;99.90;;;;;;4991217;28;20034;-69
2024/01/26 10:21:52;;;;;;;2.83;0.82;;;10.40;99.90;;;;;;4988955;28;20502;-69
2024/01/26 10:24:22;;;;;;;3.00;0.88;;;10.30;99.90;;;;;;5019004;28;20433;-69
2024/01/26 10:26:47;;;;;;;1.98;0.70;;;10.30;99.90;;;;;;4989235;28;20759;-69
2024/01/26 10:29:14;;;;;;;2.05;0.70;;;10.30;99.90;;;;;;4989630;28;20116;-69
2024/01/26 10:31:44;;;;;;;3.97;0.90;;;10.30;99.90;;;;;;4987938;28;20023;-69
2024/01/26 10:34:13;;;;;;;5.15;1.00;;;10.30;99.90;;;;;;4988275;28;20038;-69
2024/01/26 10:36:45;;;;;;;3.40;0.80;;;10.20;99.50;;;;;;4986529;28;20034;-69
2024/01/26 10:39:28;;;;;;;5.35;1.00;;;10.20;99.60;;;;;;4990249;28;20069;-69
2024/01/26 10:42:00;;;;;;;1.52;0.90;;;10.20;99.40;;;;;;4990203;28;20062;-69
2024/01/26 10:44:26;;;;;;;;;;;10.30;99.30;;;;;;4990112;28;20444;-69
2024/01/26 10:46:53;;;;;;;1.92;0.80;;;10.40;99.00;;;;;;4989358;28;19910;-69
2024/01/26 10:49:22;;;;;;;3.63;0.98;;;10.40;98.70;;;;;;4990036;28;20018;-69
2024/01/26 10:51:48;;;;;;;2.85;0.98;;;10.50;98.50;;;;;;4987305;28;20019;-69
2024/01/26 10:54:14;;;;;;;1.52;0.90;;;10.40;98.10;;;;;;4988742;28;20034;-69
2024/01/26 10:56:40;;;;;;;3.80;1.00;;;10.50;98.10;;;;;;4986011;28;20026;-68
2024/01/26 10:59:10;;;;;;;5.18;1.35;;;10.50;97.80;;;;;;4987294;28;20030;-68
2024/01/26 11:01:39;;;;;;;7.00;1.13;;;10.60;97.60;;;;;;4989216;28;20656;-68
2024/01/26 11:04:08;;;;;;;3.80;1.10;;;10.70;97.20;;;;;;4987975;28;20072;-69
2024/01/26 11:06:34;;;;;;;5.50;1.20;;;10.70;96.60;;;;;;4989959;28;20026;-69
2024/01/26 11:09:03;;;;;;;4.15;1.25;;;10.70;96.40;;;;;;4991572;28;20034;-68
2024/01/26 11:11:34;;;;;;;3.53;1.15;;;10.80;96.20;;;;;;4987256;28;20088;-69
2024/01/26 11:14:02;;;;;;;6.90;1.30;;;10.80;95.60;;;;;;4985684;28;20046;-68
2024/01/26 11:16:47;;;;;;;4.30;1.17;;;10.90;95.30;;;;;;4977039;28;20124;-68
2024/01/26 11:19:22;;;;;;;5.97;1.00;;;10.90;94.70;;;;;;4986206;28;20053;-69
2024/01/26 11:21:48;;;;;;;4.88;1.13;;;10.80;94.00;;;;;;4986395;28;20033;-68
2024/01/26 11:24:16;;;;;;;3.67;1.10;;;10.70;93.20;;;;;;4984765;28;20110;-68
2024/01/26 11:26:42;;;;;;;5.70;1.20;;;10.70;93.10;;;;;;4985807;28;20027;-69
2024/01/26 11:29:14;;;;;;;5.25;1.20;;;10.70;92.60;;;;;;4989018;28;20564;-68
2024/01/26 11:31:43;;;;;;;5.13;1.10;;;10.70;92.70;;;;;;4972779;28;20488;-68
2024/01/26 11:34:18;;;;;;;3.92;1.02;;;10.70;92.70;;;;;;5001458;28;20026;-69
2024/01/26 11:36:44;;;;;;;2.95;1.15;;;10.70;92.20;;;;;;4980455;28;20130;-68
2024/01/26 11:39:13;;;;;;;4.20;1.17;;;10.70;91.90;;;;;;4991567;28;20026;-68
2024/01/26 11:41:43;;;;;;;5.55;1.10;;;10.70;91.60;;;;;;4988409;28;20128;-68
2024/01/26 11:44:19;;;;;;;4.38;1.10;;;10.60;91.10;;;;;;4988717;28;20022;-68
2024/01/26 11:46:44;;;;;;;5.80;1.08;;;10.60;91.10;;;;;;4982312;28;20105;-68
2024/01/26 11:49:10;;;;;;;10.75;2.50;;;10.60;91.10;;;;;;4985901;28;20105;-67
2024/01/26 11:51:35;;;;;;;6.65;1.48;;;10.60;90.60;;;;;;4986947;28;20026;-68
2024/01/26 11:54:01;;;;;;;6.95;1.33;;;10.50;90.20;;;;;;4988135;28;20041;-67
2024/01/26 11:56:26;;;;;;;6.55;1.25;;;10.60;90.20;;;;;;4986002;28;20036;-68
2024/01/26 11:58:52;;;;;;;5.05;1.20;;;10.50;89.50;;;;;;4984195;28;20149;-68
2024/01/26 12:01:18;;;;;;;6.55;1.50;;;10.50;89.50;;;;;;4994086;28;20030;-68
2024/01/26 12:03:44;;;;;;;8.23;1.38;;;10.40;88.90;;;;;;4987220;28;20061;-68
2024/01/26 12:06:10;;;;;;;5.30;1.10;;;10.40;88.40;;;;;;4990251;28;20033;-67
2024/01/26 12:08:36;;;;;;;7.25;1.65;;;10.40;88.20;;;;;;4989922;28;20026;-70
2024/01/26 12:11:01;;;;;;;5.43;1.10;;;10.40;87.70;;;;;;4988985;28;20045;-71
2024/01/26 12:13:28;;;;;;;7.85;1.63;;;10.40;86.90;;;;;;4994878;28;20662;-70
2024/01/26 12:15:55;;;;;;;7.13;1.40;;;10.40;86.30;;;;;;4993876;28;20026;-70
2024/01/26 12:18:22;;;;;;;7.00;1.52;;;10.50;86.60;;;;;;4996661;28;20021;-70
2024/01/26 12:20:48;;;;;;;7.55;2.30;;;10.70;84.50;;;;;;4996303;28;20119;-70
2024/01/26 12:23:17;;;;;;;6.68;1.98;;;10.90;83.40;;;;;;4993226;28;20384;-70
2024/01/26 12:25:43;;;;;;;5.82;1.20;;;10.90;83.70;;;;;;4994346;28;20033;-70
2024/01/26 12:28:09;;;;;;;7.38;1.85;;;10.80;84.30;;;;;;4988834;28;20014;-69
2024/01/26 12:30:34;;;;;;;6.03;1.27;;;10.70;84.10;;;;;;4992892;28;20022;-68
2024/01/26 12:33:07;;;;;;;7.43;1.42;;;10.60;84.00;;;;;;4981888;28;20034;-68
2024/01/26 12:35:34;;;;;;;9.20;1.70;;;10.50;83.70;;;;;;4988925;28;20026;-69
2024/01/26 12:38:00;;;;;;;6.43;1.90;;;10.30;83.20;;;;;;5019647;28;20033;-69
2024/01/26 12:40:25;;;;;;;6.97;1.98;;;10.30;83.40;;;;;;4991499;28;20033;-69